Time;durP1;ratioP1;P1;durP2;ratioP2;P2;SDS_P1;SDS_P2;PMS_P1;PMS_P2;Temp;Humidity;BMP_temperature;BMP_pressure;BME280_temperature;BME280_humidity;BME280_pressure;Samples;Min_cycle;Max_cycle;Signal;HPM_P1;HPM_P2
2020/12/13 00:02:20;;;;;;;30.85;18.55;;;6.90;99.90;;;;;;5033161;28;20053;-61
2020/12/13 00:04:46;;;;;;;28.60;16.35;;;6.90;99.90;;;;;;5033891;28;20026;-62
2020/12/13 00:07:12;;;;;;;25.80;16.83;;;7.00;99.90;;;;;;5033276;28;20030;-61
2020/12/13 00:09:37;;;;;;;30.23;16.88;;;7.00;99.90;;;;;;5033974;28;20029;-61
2020/12/13 00:12:07;;;;;;;29.38;16.45;;;6.90;99.90;;;;;;5033281;28;20142;-62
2020/12/13 00:14:33;;;;;;;27.73;16.40;;;7.00;99.90;;;;;;5033017;28;20113;-62
2020/12/13 00:16:59;;;;;;;29.48;16.75;;;7.10;99.90;;;;;;5015721;28;20026;-62
2020/12/13 00:19:25;;;;;;;27.88;16.58;;;7.10;99.90;;;;;;5015169;28;20478;-63
2020/12/13 00:21:53;;;;;;;25.80;16.23;;;7.10;99.90;;;;;;5033411;28;20495;-62
2020/12/13 00:24:19;;;;;;;29.50;17.67;;;7.00;99.90;;;;;;5015080;28;20197;-63
2020/12/13 00:26:45;;;;;;;24.20;15.63;;;7.10;99.90;;;;;;5033166;28;20098;-61
2020/12/13 00:29:12;;;;;;;23.40;15.35;;;7.10;99.90;;;;;;5033118;28;20482;-61
2020/12/13 00:31:38;;;;;;;22.20;14.45;;;7.10;99.90;;;;;;5033480;28;20048;-61
2020/12/13 00:34:04;;;;;;;25.98;15.68;;;7.20;99.90;;;;;;5033553;28;20087;-62
2020/12/13 00:36:30;;;;;;;25.02;15.07;;;7.20;99.90;;;;;;5032567;28;20101;-62
2020/12/13 00:38:56;;;;;;;25.90;15.68;;;7.20;99.90;;;;;;5015418;28;20030;-61
2020/12/13 00:41:22;;;;;;;22.13;14.38;;;7.30;99.90;;;;;;5032540;28;20029;-61
2020/12/13 00:43:47;;;;;;;25.27;15.55;;;7.40;99.90;;;;;;5015399;28;20129;-61
2020/12/13 00:46:13;;;;;;;27.38;15.80;;;7.40;99.90;;;;;;5032998;28;20044;-61
2020/12/13 00:48:40;;;;;;;26.83;16.42;;;7.40;99.90;;;;;;5032439;28;20108;-62
2020/12/13 00:51:05;;;;;;;23.63;15.48;;;7.30;99.90;;;;;;5032895;28;20049;-62
2020/12/13 00:53:31;;;;;;;24.67;16.00;;;7.30;99.90;;;;;;5032309;28;20032;-61
2020/12/13 00:55:57;;;;;;;26.70;15.48;;;7.30;99.90;;;;;;5014895;28;20026;-61
2020/12/13 00:58:22;;;;;;;26.05;16.30;;;7.30;99.90;;;;;;5014101;28;20079;-61
2020/12/13 01:00:48;;;;;;;25.05;15.15;;;7.30;99.90;;;;;;5032811;28;20534;-62
2020/12/13 01:03:13;;;;;;;27.75;17.08;;;7.30;99.90;;;;;;5032277;28;20049;-61
2020/12/13 01:05:40;;;;;;;28.02;15.48;;;7.30;99.90;;;;;;5032399;28;20105;-62
2020/12/13 01:08:06;;;;;;;28.13;16.20;;;7.30;99.90;;;;;;5014850;28;20029;-61
2020/12/13 01:10:32;;;;;;;27.92;15.77;;;7.40;99.90;;;;;;4997874;28;20021;-61
2020/12/13 01:12:58;;;;;;;30.92;16.48;;;7.40;99.90;;;;;;5014527;28;20053;-61
2020/12/13 01:15:23;;;;;;;29.35;17.75;;;7.30;99.90;;;;;;5013844;28;20025;-61
2020/12/13 01:17:49;;;;;;;29.27;16.85;;;7.30;99.90;;;;;;5032199;28;20025;-61
2020/12/13 01:20:16;;;;;;;27.50;15.77;;;7.30;99.90;;;;;;5032190;28;20407;-62
2020/12/13 01:22:41;;;;;;;32.25;16.67;;;7.20;99.90;;;;;;5032363;28;20060;-61
2020/12/13 01:25:09;;;;;;;25.45;15.43;;;7.20;99.90;;;;;;5032255;28;20139;-61
2020/12/13 01:27:35;;;;;;;30.13;16.27;;;7.10;99.90;;;;;;5031641;28;20026;-62
2020/12/13 01:30:03;;;;;;;26.85;15.65;;;7.10;99.90;;;;;;5031615;28;20025;-62
2020/12/13 01:32:29;;;;;;;26.25;17.05;;;7.10;99.90;;;;;;5031557;28;20051;-62
2020/12/13 01:34:54;;;;;;;27.33;16.10;;;7.10;99.90;;;;;;5014154;28;20120;-61
2020/12/13 01:37:20;;;;;;;33.55;16.83;;;7.10;99.90;;;;;;5031319;28;20075;-62
2020/12/13 01:39:46;;;;;;;28.17;16.92;;;7.20;99.90;;;;;;5013908;28;20029;-62
2020/12/13 01:42:11;;;;;;;28.73;17.02;;;7.20;99.90;;;;;;5031997;28;20056;-61
2020/12/13 01:44:37;;;;;;;27.35;16.23;;;7.20;99.90;;;;;;5031238;28;20088;-61
2020/12/13 01:47:05;;;;;;;34.55;17.58;;;7.30;99.90;;;;;;5013847;28;20434;-61
2020/12/13 01:49:38;;;;;;;30.08;17.25;;;7.30;99.90;;;;;;5031345;28;20455;-61
2020/12/13 01:52:40;;;;;;;26.85;15.57;;;7.40;99.90;;;;;;5031368;28;20045;-61
2020/12/13 01:55:01;;;;;;;27.20;14.55;;;7.30;99.90;;;;;;5016254;28;20033;-61
2020/12/13 01:57:33;;;;;;;30.48;16.45;;;7.30;99.90;;;;;;5013232;28;20025;-61
2020/12/13 02:00:04;;;;;;;28.58;17.23;;;7.30;99.90;;;;;;5031087;28;20159;-61
2020/12/13 02:02:35;;;;;;;26.98;16.92;;;7.40;99.90;;;;;;5016780;28;20053;-61
2020/12/13 02:05:03;;;;;;;22.48;14.07;;;7.30;99.90;;;;;;5031527;28;20029;-62
2020/12/13 02:07:29;;;;;;;30.25;16.52;;;7.30;99.90;;;;;;5029481;28;20369;-62
2020/12/13 02:09:55;;;;;;;27.88;15.07;;;7.30;99.90;;;;;;5030820;28;20040;-62
2020/12/13 02:12:21;;;;;;;32.17;17.42;;;7.40;99.90;;;;;;5030616;28;20034;-61
2020/12/13 02:14:47;;;;;;;30.58;16.95;;;7.20;99.90;;;;;;5029822;28;20034;-62
2020/12/13 02:17:12;;;;;;;33.08;16.98;;;7.20;99.90;;;;;;5029835;28;20032;-61
2020/12/13 02:19:38;;;;;;;29.60;16.30;;;7.20;99.90;;;;;;5030493;28;20536;-61
2020/12/13 02:22:12;;;;;;;34.58;17.65;;;7.30;99.90;;;;;;5031170;28;20388;-61
2020/12/13 02:24:38;;;;;;;32.75;18.48;;;7.30;99.90;;;;;;5029102;28;20029;-62
2020/12/13 02:27:08;;;;;;;34.47;18.20;;;7.40;99.90;;;;;;5030929;28;20048;-62
2020/12/13 02:29:34;;;;;;;41.40;19.70;;;7.30;99.90;;;;;;5030307;28;20022;-61
2020/12/13 02:32:00;;;;;;;40.22;18.83;;;7.20;99.90;;;;;;5030319;28;20041;-61
2020/12/13 02:34:26;;;;;;;37.63;19.40;;;7.10;99.90;;;;;;5030185;28;20029;-61
2020/12/13 02:36:52;;;;;;;40.35;20.40;;;7.10;99.90;;;;;;5030471;28;20494;-61
2020/12/13 02:39:17;;;;;;;41.88;20.75;;;7.10;99.90;;;;;;5030792;28;20393;-61
2020/12/13 02:41:43;;;;;;;41.80;21.70;;;7.20;99.90;;;;;;5030054;28;20076;-61
2020/12/13 02:44:09;;;;;;;45.55;21.58;;;7.00;99.90;;;;;;5030470;28;20025;-61
2020/12/13 02:46:34;;;;;;;40.35;21.40;;;7.00;99.90;;;;;;5029972;28;20029;-61
2020/12/13 02:49:00;;;;;;;40.05;19.75;;;7.10;99.90;;;;;;5029245;28;20052;-61
2020/12/13 02:51:26;;;;;;;36.63;20.27;;;7.10;99.90;;;;;;5028654;28;20037;-62
2020/12/13 02:53:52;;;;;;;41.72;19.75;;;7.10;99.90;;;;;;5030401;28;20474;-62
2020/12/13 02:56:18;;;;;;;57.92;21.38;;;7.10;99.90;;;;;;5030762;28;20114;-61
2020/12/13 02:58:43;;;;;;;39.20;20.80;;;7.20;99.90;;;;;;5030422;28;20439;-62
2020/12/13 03:01:10;;;;;;;44.72;21.70;;;7.10;99.90;;;;;;5030568;28;20038;-62
2020/12/13 03:03:36;;;;;;;42.63;20.45;;;7.00;99.90;;;;;;5028452;28;20111;-62
2020/12/13 03:06:02;;;;;;;46.72;21.90;;;7.00;99.90;;;;;;5030487;28;20029;-61
2020/12/13 03:08:27;;;;;;;47.30;20.65;;;7.00;99.90;;;;;;5030247;28;20463;-61
2020/12/13 03:10:53;;;;;;;41.88;20.02;;;7.10;99.90;;;;;;5030434;28;20034;-61
2020/12/13 03:13:18;;;;;;;42.35;20.95;;;7.00;99.90;;;;;;5030157;28;20128;-61
2020/12/13 03:15:44;;;;;;;38.95;20.38;;;7.00;99.90;;;;;;5029537;28;20574;-61
2020/12/13 03:18:10;;;;;;;37.63;20.13;;;7.00;99.90;;;;;;5030040;28;20025;-60
2020/12/13 03:20:35;;;;;;;35.30;19.98;;;6.90;99.90;;;;;;5030616;28;20025;-60
2020/12/13 03:23:01;;;;;;;35.30;18.92;;;6.90;99.90;;;;;;5033964;28;20098;-60
2020/12/13 03:25:26;;;;;;;36.03;20.17;;;7.10;99.90;;;;;;5033576;28;20041;-61
2020/12/13 03:27:52;;;;;;;36.65;19.00;;;7.00;99.90;;;;;;5034259;28;20056;-60
2020/12/13 03:30:17;;;;;;;44.35;21.42;;;7.10;99.90;;;;;;5034114;28;20017;-61
2020/12/13 03:32:43;;;;;;;36.85;19.02;;;7.00;99.90;;;;;;5033347;28;20055;-61
2020/12/13 03:35:09;;;;;;;38.22;19.80;;;7.00;99.90;;;;;;5033955;28;20040;-61
2020/12/13 03:37:34;;;;;;;31.98;18.55;;;7.00;99.90;;;;;;5033268;28;20025;-62
2020/12/13 03:40:00;;;;;;;33.97;19.25;;;7.00;99.90;;;;;;5034036;28;20068;-61
2020/12/13 03:42:26;;;;;;;34.78;20.60;;;7.10;99.90;;;;;;5031719;28;20053;-62
2020/12/13 03:44:51;;;;;;;31.85;18.38;;;7.10;99.90;;;;;;5032475;28;20099;-62
2020/12/13 03:47:17;;;;;;;32.72;18.40;;;7.10;99.90;;;;;;5033845;28;20040;-62
2020/12/13 03:49:42;;;;;;;32.20;18.95;;;7.10;99.90;;;;;;5033187;28;20030;-65
2020/12/13 03:52:08;;;;;;;30.90;18.60;;;7.10;99.90;;;;;;5033713;28;20067;-62
2020/12/13 03:54:33;;;;;;;30.77;17.75;;;7.10;99.90;;;;;;5033325;28;20026;-62
2020/12/13 03:56:59;;;;;;;36.72;19.65;;;7.10;99.90;;;;;;5032450;28;20021;-62
2020/12/13 03:59:25;;;;;;;30.35;17.85;;;7.10;99.90;;;;;;5033545;28;20037;-62
2020/12/13 04:01:51;;;;;;;34.38;18.98;;;7.10;99.90;;;;;;5033120;28;20084;-64
2020/12/13 04:04:16;;;;;;;33.00;18.20;;;7.10;99.90;;;;;;5031749;28;20057;-60
2020/12/13 04:06:42;;;;;;;30.23;18.33;;;7.20;99.90;;;;;;5033236;28;20037;-61
2020/12/13 04:09:07;;;;;;;28.20;17.20;;;7.20;99.90;;;;;;5032228;28;20107;-61
2020/12/13 04:11:33;;;;;;;33.38;20.63;;;7.20;99.90;;;;;;5031297;28;20368;-61
2020/12/13 04:13:58;;;;;;;32.30;18.10;;;7.20;99.90;;;;;;5032196;28;20026;-61
2020/12/13 04:16:24;;;;;;;31.10;18.65;;;7.20;99.90;;;;;;5033585;28;20030;-61
2020/12/13 04:18:50;;;;;;;27.80;17.23;;;7.20;99.90;;;;;;5031430;28;20030;-60
2020/12/13 04:21:15;;;;;;;29.05;17.30;;;7.20;99.90;;;;;;5033531;28;20084;-61
2020/12/13 04:23:41;;;;;;;30.55;17.98;;;7.20;99.90;;;;;;5033075;28;20027;-61
2020/12/13 04:26:06;;;;;;;31.48;17.77;;;7.20;99.90;;;;;;5033263;28;20061;-61
2020/12/13 04:28:32;;;;;;;33.42;19.05;;;7.20;99.90;;;;;;5030973;28;20459;-61
2020/12/13 04:30:58;;;;;;;30.10;18.23;;;7.20;99.90;;;;;;5031543;28;20042;-61
2020/12/13 04:33:23;;;;;;;32.33;19.33;;;7.10;99.90;;;;;;5032090;28;20124;-61
2020/12/13 04:35:49;;;;;;;29.10;18.08;;;7.20;99.90;;;;;;5032823;28;20076;-61
2020/12/13 04:38:14;;;;;;;29.98;17.50;;;7.30;99.90;;;;;;5033026;28;20033;-61
2020/12/13 04:40:40;;;;;;;27.83;16.65;;;7.30;99.90;;;;;;5031993;28;20040;-61
2020/12/13 04:43:06;;;;;;;29.42;16.33;;;7.30;99.90;;;;;;5031512;28;20530;-61
2020/12/13 04:45:33;;;;;;;25.73;15.45;;;7.40;99.90;;;;;;5030912;28;20175;-61
2020/12/13 04:48:06;;;;;;;28.23;15.82;;;7.50;99.90;;;;;;5033035;28;20026;-61
2020/12/13 04:50:35;;;;;;;25.77;16.10;;;7.60;99.90;;;;;;5032322;28;20220;-60
2020/12/13 04:53:05;;;;;;;24.42;16.08;;;7.50;99.90;;;;;;5032741;28;20035;-60
2020/12/13 04:55:34;;;;;;;23.48;15.43;;;7.50;99.90;;;;;;5032097;28;20029;-61
2020/12/13 04:58:00;;;;;;;26.38;15.77;;;7.60;99.90;;;;;;5032382;28;20087;-61
2020/12/13 05:00:29;;;;;;;24.00;15.40;;;7.60;99.90;;;;;;5031045;28;20029;-61
2020/12/13 05:02:57;;;;;;;27.83;17.75;;;7.60;99.90;;;;;;5030669;28;20053;-62
2020/12/13 05:05:22;;;;;;;29.00;16.38;;;7.60;99.90;;;;;;5014673;28;20167;-61
2020/12/13 05:07:48;;;;;;;25.48;16.05;;;7.60;99.90;;;;;;5032100;28;20104;-61
2020/12/13 05:10:14;;;;;;;25.33;15.57;;;7.60;99.90;;;;;;5032067;28;20036;-62
2020/12/13 05:12:39;;;;;;;28.63;17.35;;;7.60;99.90;;;;;;5031519;28;20120;-61
2020/12/13 05:15:05;;;;;;;25.52;15.75;;;7.60;99.90;;;;;;5031128;28;20072;-60
2020/12/13 05:17:33;;;;;;;23.20;14.82;;;7.50;99.90;;;;;;5031644;28;20022;-61
2020/12/13 05:19:59;;;;;;;25.25;14.93;;;7.50;99.90;;;;;;5031881;28;20044;-61
2020/12/13 05:22:24;;;;;;;23.98;14.05;;;7.50;99.90;;;;;;5030615;28;20029;-60
2020/12/13 05:24:50;;;;;;;28.08;16.30;;;7.60;99.90;;;;;;5031037;28;20032;-61
2020/12/13 05:27:22;;;;;;;23.92;14.38;;;7.50;99.90;;;;;;5032433;28;20029;-60
2020/12/13 05:29:51;;;;;;;22.83;14.75;;;7.50;99.90;;;;;;5030044;28;20029;-60
2020/12/13 05:32:21;;;;;;;21.75;14.98;;;7.50;99.90;;;;;;5047090;28;20505;-60
2020/12/13 05:34:49;;;;;;;22.55;14.73;;;7.40;99.90;;;;;;5030074;28;20031;-60
2020/12/13 05:37:15;;;;;;;24.25;15.57;;;7.50;99.90;;;;;;5032035;28;20032;-61
2020/12/13 05:39:42;;;;;;;24.25;15.07;;;7.50;99.90;;;;;;5029526;28;20026;-61
2020/12/13 05:42:10;;;;;;;23.88;15.27;;;7.50;99.90;;;;;;5030057;28;20033;-61
2020/12/13 05:47:14;;;;;;;37.30;18.10;;;7.50;99.90;;;;;;5031429;28;20060;-61
2020/12/13 05:52:14;;;;;;;25.63;16.48;;;7.60;99.90;;;;;;5031587;28;20045;-61
2020/12/13 05:54:41;;;;;;;28.05;17.38;;;7.60;99.90;;;;;;5031093;28;20473;-61
2020/12/13 05:57:09;;;;;;;27.67;18.13;;;7.50;99.90;;;;;;5030196;28;20036;-61
2020/12/13 05:59:35;;;;;;;27.45;18.23;;;7.60;99.90;;;;;;5030830;28;20037;-61
2020/12/13 06:02:02;;;;;;;25.70;16.98;;;7.40;99.90;;;;;;5029538;28;20113;-61
2020/12/13 06:04:32;;;;;;;33.22;20.45;;;7.50;99.90;;;;;;5031058;28;20343;-62
2020/12/13 06:07:04;;;;;;;31.35;18.63;;;7.40;99.90;;;;;;5031439;28;20136;-62
2020/12/13 06:09:32;;;;;;;;;;;7.30;99.90;;;;;;5031738;28;20357;-62
2020/12/13 06:12:09;;;;;;;28.33;17.38;;;7.40;99.90;;;;;;5031205;28;19917;-61
2020/12/13 06:14:39;;;;;;;26.90;16.90;;;7.50;99.90;;;;;;5030908;28;20025;-62
2020/12/13 06:17:05;;;;;;;28.25;17.52;;;7.40;99.90;;;;;;5031477;28;20123;-61
2020/12/13 06:19:33;;;;;;;24.00;16.20;;;7.30;99.90;;;;;;5031668;28;20033;-62
2020/12/13 06:22:01;;;;;;;24.98;15.13;;;7.30;99.90;;;;;;5013983;28;20037;-64
2020/12/13 06:24:27;;;;;;;22.27;14.73;;;7.50;99.90;;;;;;5013532;28;20099;-61
2020/12/13 06:26:54;;;;;;;23.80;14.95;;;7.50;99.90;;;;;;5013135;28;20103;-61
2020/12/13 06:29:21;;;;;;;24.60;14.95;;;7.50;99.90;;;;;;5029845;28;20053;-60
2020/12/13 06:31:49;;;;;;;24.98;16.02;;;7.40;99.90;;;;;;5012313;28;20137;-61
2020/12/13 06:34:15;;;;;;;25.02;16.30;;;7.40;99.90;;;;;;5030906;28;20113;-60
2020/12/13 06:36:41;;;;;;;25.05;15.02;;;7.40;99.90;;;;;;5030428;28;20471;-61
2020/12/13 06:39:12;;;;;;;24.85;15.50;;;7.40;99.90;;;;;;5013144;28;20124;-61
2020/12/13 06:41:47;;;;;;;23.42;15.57;;;7.40;99.90;;;;;;5030391;28;20029;-61
2020/12/13 06:44:14;;;;;;;22.88;14.57;;;7.40;99.90;;;;;;5031008;28;20030;-61
2020/12/13 06:46:42;;;;;;;24.30;15.18;;;7.50;99.90;;;;;;5030072;28;20033;-62
2020/12/13 06:49:17;;;;;;;24.23;14.32;;;7.50;99.90;;;;;;5030507;28;20343;-62
2020/12/13 06:51:44;;;;;;;21.88;14.88;;;7.50;99.90;;;;;;5030644;28;20030;-61
2020/12/13 06:54:13;;;;;;;23.77;14.63;;;7.60;99.90;;;;;;5030388;28;20037;-61
2020/12/13 06:56:40;;;;;;;22.98;14.43;;;7.50;99.90;;;;;;5035616;28;20033;-61
2020/12/13 06:59:07;;;;;;;22.73;15.25;;;7.50;99.90;;;;;;5037308;28;20065;-61
2020/12/13 07:01:43;;;;;;;24.23;15.77;;;7.50;99.90;;;;;;5036926;28;20041;-61
2020/12/13 07:04:23;;;;;;;23.10;14.80;;;7.50;99.90;;;;;;5051161;28;20068;-61
2020/12/13 07:06:56;;;;;;;23.35;15.00;;;7.60;99.90;;;;;;5036450;28;20087;-61
2020/12/13 07:09:22;;;;;;;22.98;14.38;;;7.60;99.90;;;;;;5037244;28;20153;-61
2020/12/13 07:11:50;;;;;;;22.67;14.23;;;7.60;99.90;;;;;;5035347;28;20076;-61
2020/12/13 07:14:17;;;;;;;25.75;15.90;;;7.70;99.90;;;;;;5037163;28;20033;-62
2020/12/13 07:16:49;;;;;;;25.88;15.65;;;7.70;99.90;;;;;;5035234;28;20090;-61
2020/12/13 07:19:17;;;;;;;24.08;15.68;;;7.70;99.90;;;;;;5037198;28;20490;-61
2020/12/13 07:21:44;;;;;;;30.58;16.95;;;7.70;99.90;;;;;;5036654;28;20057;-62
2020/12/13 07:24:11;;;;;;;29.77;15.98;;;7.70;99.90;;;;;;5019268;28;20029;-61
2020/12/13 07:26:38;;;;;;;26.17;14.70;;;7.70;99.90;;;;;;5037020;28;20427;-62
2020/12/13 07:29:14;;;;;;;26.10;15.07;;;7.80;99.90;;;;;;5035739;28;20026;-61
2020/12/13 07:31:44;;;;;;;25.10;14.70;;;7.70;99.90;;;;;;5036300;28;20084;-61
2020/12/13 07:34:10;;;;;;;24.55;15.48;;;7.80;99.90;;;;;;5035787;28;20064;-61
2020/12/13 07:36:36;;;;;;;22.70;15.38;;;7.80;99.90;;;;;;5037683;28;20053;-62
2020/12/13 07:39:04;;;;;;;23.67;15.90;;;7.80;99.90;;;;;;5036305;28;20067;-61
2020/12/13 07:41:30;;;;;;;24.80;15.93;;;7.80;99.90;;;;;;5037096;28;20496;-61
2020/12/13 07:44:05;;;;;;;24.45;15.05;;;7.80;99.90;;;;;;5036534;28;20112;-61
2020/12/13 07:46:32;;;;;;;27.17;15.52;;;7.80;99.90;;;;;;5037310;28;20122;-61
2020/12/13 07:49:09;;;;;;;27.40;16.02;;;7.80;99.90;;;;;;5035131;28;20562;-62
2020/12/13 07:51:43;;;;;;;23.05;14.40;;;7.80;99.90;;;;;;5037154;28;20159;-63
2020/12/13 07:54:16;;;;;;;27.45;17.75;;;7.80;99.90;;;;;;5035697;28;20041;-61
2020/12/13 07:56:47;;;;;;;25.92;16.15;;;7.80;99.90;;;;;;5036940;28;20033;-63
2020/12/13 07:59:12;;;;;;;30.33;16.33;;;7.80;99.90;;;;;;5035753;28;20047;-62
2020/12/13 08:01:40;;;;;;;25.67;16.23;;;7.80;99.90;;;;;;5035860;28;20120;-62
2020/12/13 08:04:07;;;;;;;27.38;16.17;;;7.80;99.90;;;;;;5036011;28;20510;-62
2020/12/13 08:06:33;;;;;;;25.20;15.63;;;7.90;99.90;;;;;;5034410;28;20061;-61
2020/12/13 08:08:59;;;;;;;26.08;15.38;;;7.90;99.90;;;;;;5031760;28;20087;-61
2020/12/13 08:11:25;;;;;;;28.10;17.33;;;7.90;99.90;;;;;;5048710;28;20033;-61
2020/12/13 08:13:53;;;;;;;25.25;14.75;;;7.80;99.90;;;;;;5031582;28;20074;-61
2020/12/13 08:16:19;;;;;;;23.95;15.38;;;7.80;99.90;;;;;;5033730;28;20029;-61
2020/12/13 08:18:47;;;;;;;25.13;16.13;;;7.80;99.90;;;;;;5031958;28;20455;-61
2020/12/13 08:21:18;;;;;;;32.85;18.27;;;7.80;99.90;;;;;;5033879;28;20029;-61
2020/12/13 08:23:47;;;;;;;23.75;15.27;;;7.80;99.90;;;;;;5031763;28;20461;-62
2020/12/13 08:26:14;;;;;;;24.02;15.23;;;7.80;99.90;;;;;;5033373;28;20082;-62
2020/12/13 08:28:42;;;;;;;23.05;15.80;;;7.80;99.90;;;;;;5033237;28;20045;-62
2020/12/13 08:31:13;;;;;;;30.30;16.27;;;7.80;99.90;;;;;;5032907;28;20033;-64
2020/12/13 08:33:40;;;;;;;23.33;15.32;;;7.80;99.90;;;;;;5015950;28;20060;-72
2020/12/13 08:36:20;;;;;;;23.08;15.18;;;7.90;99.90;;;;;;5031392;28;20034;-72
2020/12/13 08:38:57;;;;;;;16.85;12.00;;;8.50;99.90;;;;;;5032455;28;20429;-71
2020/12/13 08:41:23;;;;;;;22.55;14.15;;;8.70;99.90;;;;;;5033538;28;20030;-72
2020/12/13 08:43:49;;;;;;;21.73;13.85;;;8.50;99.90;;;;;;5032289;28;20029;-71
2020/12/13 08:46:36;;;;;;;20.98;13.32;;;8.30;99.90;;;;;;5031878;28;20528;-61
2020/12/13 08:49:02;;;;;;;20.15;14.38;;;8.10;99.90;;;;;;5031086;28;20287;-62
2020/12/13 08:51:28;;;;;;;21.00;14.38;;;7.90;99.90;;;;;;5032764;28;20083;-62
2020/12/13 08:53:58;;;;;;;23.45;14.63;;;7.80;99.90;;;;;;5032381;28;20060;-62
2020/12/13 08:56:37;;;;;;;26.85;14.75;;;7.70;99.90;;;;;;5031256;28;20035;-61
2020/12/13 08:59:04;;;;;;;25.25;14.95;;;7.60;99.90;;;;;;5032390;28;20072;-62
2020/12/13 09:01:33;;;;;;;21.90;14.40;;;7.70;99.90;;;;;;5032300;28;20124;-61
2020/12/13 09:03:59;;;;;;;27.42;15.85;;;7.70;99.90;;;;;;5030145;28;20057;-69
2020/12/13 09:06:30;;;;;;;26.52;15.88;;;7.50;99.90;;;;;;5031131;28;20037;-62
2020/12/13 09:09:10;;;;;;;25.85;15.88;;;7.50;99.90;;;;;;5031579;28;20025;-61
2020/12/13 09:11:36;;;;;;;28.77;17.30;;;7.70;99.90;;;;;;5032432;28;20029;-62
2020/12/13 09:14:02;;;;;;;28.02;17.42;;;7.60;99.90;;;;;;5031307;28;20040;-62
2020/12/13 09:16:29;;;;;;;26.77;16.83;;;7.60;99.90;;;;;;5027620;28;20091;-61
2020/12/13 09:19:09;;;;;;;27.48;16.25;;;7.70;99.90;;;;;;5019427;28;20026;-62
2020/12/13 09:21:42;;;;;;;25.45;15.60;;;7.80;99.90;;;;;;5016679;28;20114;-62
2020/12/13 09:24:07;;;;;;;26.30;16.52;;;7.80;99.90;;;;;;5010083;28;20291;-62
2020/12/13 09:26:33;;;;;;;27.92;16.35;;;7.80;99.90;;;;;;5011890;28;20471;-61
2020/12/13 09:28:59;;;;;;;25.48;15.32;;;7.80;99.90;;;;;;5011134;28;20073;-61
2020/12/13 09:31:24;;;;;;;28.52;15.38;;;7.80;99.90;;;;;;5009732;28;20399;-62
2020/12/13 09:33:50;;;;;;;26.45;15.00;;;7.80;99.90;;;;;;5011460;28;20485;-62
2020/12/13 09:36:16;;;;;;;23.20;15.10;;;7.80;99.90;;;;;;5011433;28;20037;-62
2020/12/13 09:38:41;;;;;;;23.88;14.15;;;7.90;99.90;;;;;;5011563;28;20022;-62
2020/12/13 09:41:07;;;;;;;21.30;14.30;;;7.90;99.90;;;;;;5011072;28;20030;-62
2020/12/13 09:43:33;;;;;;;20.63;15.02;;;7.80;99.90;;;;;;5011748;28;20033;-62
2020/12/13 09:45:58;;;;;;;24.63;15.68;;;7.80;99.90;;;;;;5011058;28;20040;-63
2020/12/13 09:48:24;;;;;;;20.27;13.63;;;7.90;99.90;;;;;;5010592;28;20030;-62
2020/12/13 09:50:50;;;;;;;20.10;13.32;;;7.90;99.90;;;;;;5009914;28;20088;-62
2020/12/13 09:53:15;;;;;;;21.75;12.93;;;7.90;99.90;;;;;;5023750;28;20448;-62
2020/12/13 09:55:41;;;;;;;18.98;13.63;;;7.90;99.90;;;;;;5021838;28;20116;-62
2020/12/13 09:58:07;;;;;;;23.20;13.25;;;7.90;99.90;;;;;;5016173;28;20034;-64
2020/12/13 10:00:32;;;;;;;19.73;13.43;;;8.00;99.90;;;;;;5011758;28;20081;-63
2020/12/13 10:02:58;;;;;;;19.67;12.98;;;8.00;99.90;;;;;;5010314;28;20065;-62
2020/12/13 10:05:34;;;;;;;16.83;12.27;;;8.10;99.90;;;;;;5010638;28;20030;-62
2020/12/13 10:10:38;;;;;;;20.08;11.38;;;8.20;99.90;;;;;;5005422;28;20033;-62
2020/12/13 10:13:03;;;;;;;16.02;10.63;;;8.30;99.90;;;;;;4990929;28;20034;-63
2020/12/13 10:15:29;;;;;;;15.65;10.80;;;8.30;99.90;;;;;;4990104;28;20022;-62
2020/12/13 10:17:55;;;;;;;14.13;10.30;;;8.30;99.90;;;;;;5009098;28;20391;-63
2020/12/13 10:20:20;;;;;;;15.20;11.52;;;8.30;99.90;;;;;;5010465;28;20124;-62
2020/12/13 10:22:46;;;;;;;14.73;10.00;;;8.40;99.90;;;;;;4992240;28;20034;-62
2020/12/13 10:25:12;;;;;;;14.02;9.55;;;8.50;99.90;;;;;;5009203;28;20099;-61
2020/12/13 10:27:37;;;;;;;13.88;10.02;;;8.60;99.90;;;;;;4992474;28;20087;-61
2020/12/13 10:30:03;;;;;;;12.90;9.80;;;8.60;99.90;;;;;;4990918;28;20022;-62
2020/12/13 10:32:29;;;;;;;14.05;9.63;;;8.60;99.90;;;;;;4992379;28;20046;-62
2020/12/13 10:34:54;;;;;;;12.82;9.25;;;8.60;99.90;;;;;;5013949;28;20076;-62
2020/12/13 10:37:20;;;;;;;13.02;9.40;;;8.60;99.90;;;;;;5010133;28;20030;-61
2020/12/13 10:39:46;;;;;;;16.55;10.43;;;8.60;99.90;;;;;;5017850;28;20072;-62
2020/12/13 10:42:11;;;;;;;13.90;9.30;;;8.50;99.90;;;;;;5025979;28;20086;-62
2020/12/13 10:44:37;;;;;;;13.88;9.85;;;8.60;99.90;;;;;;5026444;28;20048;-62
2020/12/13 10:47:02;;;;;;;14.75;9.90;;;8.60;99.90;;;;;;5011485;28;20029;-62
2020/12/13 10:49:28;;;;;;;14.60;9.55;;;8.70;99.90;;;;;;5030025;28;20037;-61
2020/12/13 10:51:54;;;;;;;16.40;8.82;;;8.70;99.90;;;;;;5029601;28;20474;-64
2020/12/13 10:54:19;;;;;;;13.05;8.63;;;8.70;99.90;;;;;;5029494;28;20030;-63
2020/12/13 10:56:45;;;;;;;11.80;8.43;;;8.70;99.90;;;;;;5028603;28;20025;-64
2020/12/13 10:59:11;;;;;;;12.35;8.10;;;8.70;99.90;;;;;;5028394;28;20041;-64
2020/12/13 11:01:36;;;;;;;14.18;9.50;;;8.70;99.90;;;;;;5029320;28;20033;-63
2020/12/13 11:04:02;;;;;;;11.48;8.23;;;8.70;99.90;;;;;;5022918;28;20050;-62
2020/12/13 11:06:30;;;;;;;10.05;7.95;;;8.70;99.90;;;;;;5021697;28;20056;-62
2020/12/13 11:08:56;;;;;;;10.70;8.20;;;8.80;99.90;;;;;;5028405;28;20103;-63
2020/12/13 11:11:22;;;;;;;12.60;8.60;;;8.80;99.90;;;;;;5029018;28;20421;-61
2020/12/13 11:13:48;;;;;;;11.07;8.82;;;8.80;99.90;;;;;;5028663;28;20026;-62
2020/12/13 11:16:13;;;;;;;10.98;8.80;;;8.80;99.90;;;;;;5042820;28;20060;-62
2020/12/13 11:18:39;;;;;;;13.02;9.45;;;8.90;99.90;;;;;;5024730;28;20026;-62
2020/12/13 11:21:05;;;;;;;16.48;10.35;;;9.00;99.90;;;;;;5011366;28;20038;-62
2020/12/13 11:23:30;;;;;;;15.63;9.40;;;9.00;99.90;;;;;;5011009;28;20065;-63
2020/12/13 11:25:56;;;;;;;12.18;8.27;;;9.10;99.90;;;;;;5016180;28;20434;-63
2020/12/13 11:28:22;;;;;;;10.45;7.47;;;9.10;99.90;;;;;;5020484;28;20021;-64
2020/12/13 11:30:48;;;;;;;10.40;6.95;;;9.10;99.90;;;;;;5020844;28;20025;-63
2020/12/13 11:33:14;;;;;;;10.90;8.00;;;9.20;99.90;;;;;;5027729;28;20033;-62
2020/12/13 11:35:39;;;;;;;10.20;6.97;;;9.20;99.90;;;;;;5018077;28;20034;-63
2020/12/13 11:38:05;;;;;;;9.25;6.50;;;9.20;99.90;;;;;;5013974;28;20438;-63
2020/12/13 11:40:31;;;;;;;13.07;7.65;;;9.20;99.90;;;;;;5013705;28;20037;-62
2020/12/13 11:42:57;;;;;;;9.85;6.45;;;9.20;99.90;;;;;;5019136;28;20393;-63
2020/12/13 11:45:24;;;;;;;9.73;6.05;;;9.20;99.90;;;;;;5024329;28;20185;-62
2020/12/13 11:47:49;;;;;;;8.93;6.90;;;9.10;99.90;;;;;;5023582;28;20439;-63
2020/12/13 11:50:15;;;;;;;9.50;6.47;;;9.20;99.90;;;;;;5033131;28;20029;-61
2020/12/13 11:52:41;;;;;;;14.40;6.60;;;9.30;99.90;;;;;;5032148;28;20431;-63
2020/12/13 11:55:07;;;;;;;9.38;6.82;;;9.20;99.90;;;;;;5032508;28;20029;-63
2020/12/13 11:57:34;;;;;;;8.32;5.80;;;9.20;99.90;;;;;;5033261;28;20021;-63
2020/12/13 11:59:59;;;;;;;11.25;8.10;;;9.20;99.90;;;;;;5031071;28;20073;-63
2020/12/13 12:02:25;;;;;;;8.93;6.72;;;9.20;99.90;;;;;;5024481;28;20057;-63
2020/12/13 12:04:51;;;;;;;8.05;5.65;;;9.20;99.90;;;;;;4995109;28;20038;-66
2020/12/13 12:07:16;;;;;;;8.43;5.45;;;9.20;99.90;;;;;;5012685;28;20034;-63
2020/12/13 12:09:42;;;;;;;7.72;5.38;;;9.30;99.90;;;;;;5013281;28;20084;-62
2020/12/13 12:12:08;;;;;;;6.43;5.00;;;9.30;99.90;;;;;;5012328;28;20121;-62
2020/12/13 12:14:34;;;;;;;7.00;5.32;;;9.40;99.90;;;;;;5012989;28;20034;-62
2020/12/13 12:17:03;;;;;;;11.18;5.35;;;9.40;99.90;;;;;;4994258;28;20033;-63
2020/12/13 12:19:29;;;;;;;6.30;4.40;;;9.40;99.90;;;;;;5012937;28;20034;-62
2020/12/13 12:21:55;;;;;;;8.52;4.60;;;9.50;99.90;;;;;;4994463;28;20056;-66
2020/12/13 12:24:21;;;;;;;8.88;4.95;;;9.50;99.90;;;;;;4994671;28;20124;-62
2020/12/13 12:26:54;;;;;;;5.88;4.35;;;9.50;99.90;;;;;;4994950;28;20452;-62
2020/12/13 12:29:20;;;;;;;9.90;4.75;;;9.50;99.90;;;;;;4994956;28;20036;-65
2020/12/13 12:31:50;;;;;;;7.40;4.80;;;9.50;99.90;;;;;;4988380;28;20030;-62
2020/12/13 12:34:16;;;;;;;8.35;4.63;;;9.50;99.90;;;;;;4990583;28;20034;-62
2020/12/13 12:36:42;;;;;;;9.43;4.28;;;9.70;99.90;;;;;;4998431;28;20031;-61
2020/12/13 12:39:08;;;;;;;5.82;4.13;;;9.70;99.90;;;;;;4992356;28;20077;-62
2020/12/13 12:41:34;;;;;;;5.28;4.05;;;9.70;99.90;;;;;;4975112;28;20049;-62
2020/12/13 12:44:00;;;;;;;9.73;4.30;;;9.80;99.90;;;;;;4991476;28;20046;-63
2020/12/13 12:46:26;;;;;;;7.05;3.80;;;9.80;99.90;;;;;;4982926;28;20034;-61
2020/12/13 12:48:52;;;;;;;5.15;3.72;;;9.70;99.90;;;;;;4994592;28;20026;-65